createdAt,value
2024-02-29T00:01:08.560Z,6.55
2024-02-29T00:03:35.064Z,5.88
2024-02-29T00:06:01.621Z,7.75
2024-02-29T00:08:28.544Z,5.45
2024-02-29T00:10:55.022Z,6.13
2024-02-29T00:13:21.656Z,6.45
2024-02-29T00:15:48.160Z,8.00
2024-02-29T00:18:14.642Z,8.35
2024-02-29T00:20:41.106Z,6.43
2024-02-29T00:23:07.589Z,6.20
2024-02-29T00:25:34.018Z,5.47
2024-02-29T00:28:00.535Z,6.15
2024-02-29T00:30:27.063Z,6.68
2024-02-29T00:32:57.748Z,6.88
2024-02-29T00:35:24.534Z,5.00
2024-02-29T00:37:50.999Z,7.40
2024-02-29T00:40:17.506Z,6.25
2024-02-29T00:42:43.991Z,7.93
2024-02-29T00:45:10.461Z,6.43
2024-02-29T00:47:37.057Z,4.23
2024-02-29T00:50:03.697Z,5.95
2024-02-29T00:52:30.129Z,6.38
2024-02-29T00:54:56.610Z,6.07
2024-02-29T00:57:23.116Z,8.82
2024-02-29T00:59:49.563Z,7.03
2024-02-29T01:02:16.026Z,5.28
2024-02-29T01:04:42.472Z,5.15
2024-02-29T01:07:09.029Z,5.90
2024-02-29T01:09:35.582Z,5.90
2024-02-29T01:12:02.066Z,5.40
2024-02-29T01:14:28.585Z,7.78
2024-02-29T01:16:57.367Z,7.47
2024-02-29T01:19:23.789Z,9.10
2024-02-29T01:21:50.310Z,9.40
2024-02-29T01:24:16.770Z,8.93
2024-02-29T01:26:43.233Z,8.52
2024-02-29T01:29:09.706Z,10.50
2024-02-29T01:31:36.123Z,8.93
2024-02-29T01:34:02.639Z,9.73
2024-02-29T01:36:29.165Z,7.97
2024-02-29T01:38:55.602Z,5.65
2024-02-29T01:41:22.575Z,4.90
2024-02-29T01:43:55.610Z,5.57
2024-02-29T01:46:22.343Z,5.15
2024-02-29T01:48:51.681Z,7.43
2024-02-29T01:51:19.352Z,6.63
2024-02-29T01:53:45.811Z,7.00
2024-02-29T01:56:13.342Z,7.22
2024-02-29T01:58:40.327Z,8.57
2024-02-29T02:01:06.940Z,7.97
2024-02-29T02:03:33.861Z,8.70
2024-02-29T02:06:00.412Z,6.75
2024-02-29T02:08:30.555Z,6.93
2024-02-29T02:10:57.196Z,6.88
2024-02-29T02:13:23.650Z,6.50
2024-02-29T02:15:50.130Z,8.48
2024-02-29T02:18:16.673Z,10.85
2024-02-29T02:20:43.166Z,8.93
2024-02-29T02:23:09.619Z,9.25
2024-02-29T02:25:36.082Z,8.77
2024-02-29T02:28:02.612Z,9.48
2024-02-29T02:30:29.065Z,9.20
2024-02-29T02:32:55.541Z,7.65
2024-02-29T02:35:21.996Z,9.32
2024-02-29T02:37:49.799Z,8.63
2024-02-29T02:40:16.454Z,11.50
2024-02-29T02:42:42.915Z,9.75
2024-02-29T02:45:09.660Z,8.75
2024-02-29T02:47:36.161Z,8.77
2024-02-29T02:50:02.621Z,6.63
2024-02-29T02:52:29.036Z,7.32
2024-02-29T02:54:55.553Z,6.97
2024-02-29T02:57:22.104Z,6.50
2024-02-29T02:59:48.609Z,4.75
2024-02-29T03:02:15.064Z,5.17
2024-02-29T03:04:41.479Z,7.18
2024-02-29T03:07:07.995Z,6.75
2024-02-29T03:09:34.485Z,6.65
2024-02-29T03:12:01.676Z,8.32
2024-02-29T03:14:28.253Z,5.47
2024-02-29T03:16:54.737Z,6.88
2024-02-29T03:19:21.233Z,9.70
2024-02-29T03:21:47.781Z,11.10
2024-02-29T03:24:14.296Z,11.05
2024-02-29T03:26:40.728Z,9.77
2024-02-29T03:29:08.418Z,11.18
2024-02-29T03:31:35.073Z,11.50
2024-02-29T03:34:03.753Z,9.02
2024-02-29T03:36:30.433Z,10.95
2024-02-29T03:38:56.856Z,9.23
2024-02-29T03:41:23.275Z,10.70
2024-02-29T03:43:49.740Z,11.40
2024-02-29T03:46:16.214Z,11.48
2024-02-29T03:48:42.737Z,11.13
2024-02-29T03:51:09.771Z,12.50
2024-02-29T03:53:36.233Z,10.20
2024-02-29T03:56:02.689Z,11.25
2024-02-29T03:58:29.135Z,9.07
2024-02-29T04:00:55.959Z,8.95
2024-02-29T04:03:22.478Z,8.47
2024-02-29T04:05:48.942Z,8.82
2024-02-29T04:08:15.404Z,7.38
2024-02-29T04:10:45.990Z,8.82
2024-02-29T04:13:12.595Z,10.68
2024-02-29T04:15:39.141Z,10.20
2024-02-29T04:18:06.302Z,7.78
2024-02-29T04:20:32.951Z,9.57
2024-02-29T04:22:59.373Z,10.70
2024-02-29T04:25:25.817Z,13.38
2024-02-29T04:27:52.608Z,13.63
2024-02-29T04:30:19.247Z,12.75
2024-02-29T04:32:45.960Z,10.80
2024-02-29T04:35:12.456Z,11.63
2024-02-29T04:37:39.710Z,9.85
2024-02-29T04:40:10.817Z,11.77
2024-02-29T04:42:38.268Z,8.27
2024-02-29T04:45:05.039Z,9.35
2024-02-29T04:47:31.453Z,14.40
2024-02-29T04:49:57.952Z,10.63
2024-02-29T04:52:24.401Z,10.73
2024-02-29T04:54:50.833Z,13.02
2024-02-29T04:57:17.271Z,11.40
2024-02-29T04:59:43.722Z,9.60
2024-02-29T05:02:11.033Z,10.00
2024-02-29T05:04:37.637Z,8.07
2024-02-29T05:07:04.358Z,9.75
2024-02-29T05:09:30.835Z,9.80
2024-02-29T05:11:57.240Z,10.23
2024-02-29T05:14:23.664Z,9.98
2024-02-29T05:16:50.128Z,8.60
2024-02-29T05:19:16.586Z,9.95
2024-02-29T05:21:44.924Z,9.10
2024-02-29T05:24:11.480Z,10.38
2024-02-29T05:26:37.928Z,9.73
2024-02-29T05:29:04.462Z,9.67
2024-02-29T05:31:30.923Z,7.63
2024-02-29T05:33:57.369Z,9.30
2024-02-29T05:36:24.081Z,9.40
2024-02-29T05:38:51.780Z,10.70
2024-02-29T05:41:18.951Z,8.47
2024-02-29T05:43:46.313Z,9.35
2024-02-29T05:46:12.995Z,10.38
2024-02-29T05:48:40.396Z,8.20
2024-02-29T05:51:08.841Z,8.70
2024-02-29T05:53:35.244Z,8.53
2024-02-29T05:56:01.679Z,21.88
2024-02-29T05:58:31.926Z,30.27
2024-02-29T06:00:58.787Z,30.65
2024-02-29T06:03:25.379Z,27.67
2024-02-29T06:05:51.810Z,24.47
2024-02-29T06:08:18.243Z,27.98
2024-02-29T06:10:47.908Z,32.40
2024-02-29T06:13:15.458Z,13.82
2024-02-29T06:15:43.325Z,9.65
2024-02-29T06:18:10.991Z,10.17
2024-02-29T06:20:37.488Z,8.73
2024-02-29T06:23:04.196Z,7.72
2024-02-29T06:25:30.679Z,9.73
2024-02-29T06:27:57.210Z,11.00
2024-02-29T06:30:30.770Z,8.43
2024-02-29T06:32:57.298Z,21.15
2024-02-29T06:35:23.781Z,23.83
2024-02-29T06:37:50.325Z,20.27
2024-02-29T06:40:16.983Z,24.15
2024-02-29T06:42:43.705Z,22.93
2024-02-29T06:45:10.477Z,30.63
2024-02-29T06:47:39.779Z,22.20
2024-02-29T06:50:06.770Z,41.88
2024-02-29T06:52:33.354Z,47.30
2024-02-29T06:54:59.822Z,41.40
2024-02-29T06:57:26.507Z,50.28
2024-02-29T06:59:53.874Z,43.22
2024-02-29T07:02:20.423Z,51.90
2024-02-29T07:04:46.882Z,9.02
2024-02-29T07:07:13.504Z,11.73
2024-02-29T07:09:43.952Z,9.38
2024-02-29T07:12:10.526Z,6.63
2024-02-29T07:14:36.963Z,9.43
2024-02-29T07:17:04.284Z,9.10
2024-02-29T07:19:31.124Z,6.90
2024-02-29T07:21:57.726Z,10.15
2024-02-29T07:24:24.173Z,7.07
2024-02-29T07:26:51.027Z,11.38
2024-02-29T07:29:17.952Z,15.07
2024-02-29T07:31:44.375Z,16.67
2024-02-29T07:34:11.960Z,13.93
2024-02-29T07:36:41.518Z,14.50
2024-02-29T07:39:08.675Z,7.40
2024-02-29T07:41:35.313Z,6.53
2024-02-29T07:44:01.718Z,8.40
2024-02-29T07:46:28.155Z,9.02
2024-02-29T07:48:54.572Z,9.50
2024-02-29T07:51:21.026Z,8.05
2024-02-29T07:53:47.438Z,8.60
2024-02-29T07:56:13.905Z,9.87
2024-02-29T07:58:40.681Z,7.93
2024-02-29T08:01:07.175Z,6.93
2024-02-29T08:03:33.743Z,8.02
2024-02-29T08:06:00.309Z,7.90
2024-02-29T08:08:26.766Z,5.77
2024-02-29T08:10:53.202Z,6.90
2024-02-29T08:13:19.662Z,6.80
2024-02-29T08:15:46.093Z,5.93
2024-02-29T08:18:14.928Z,6.93
2024-02-29T08:20:41.626Z,6.83
2024-02-29T08:23:08.098Z,7.80
2024-02-29T08:25:34.676Z,5.82
2024-02-29T08:28:01.135Z,5.43
2024-02-29T08:30:27.670Z,7.40
2024-02-29T08:32:54.185Z,11.37
2024-02-29T08:35:20.641Z,6.95
2024-02-29T08:37:47.143Z,9.13
2024-02-29T08:40:13.842Z,14.15
2024-02-29T08:42:40.391Z,17.55
2024-02-29T08:45:08.353Z,17.43
2024-02-29T08:47:34.971Z,7.85
2024-02-29T08:50:01.494Z,6.65
2024-02-29T08:52:27.992Z,4.88
2024-02-29T08:54:54.517Z,8.55
2024-02-29T08:57:20.973Z,19.10
2024-02-29T08:59:47.398Z,22.15
2024-02-29T09:02:14.119Z,15.95
2024-02-29T09:04:40.663Z,8.40
2024-02-29T09:07:07.199Z,5.78
2024-02-29T09:09:33.707Z,6.13
2024-02-29T09:12:00.178Z,10.55
2024-02-29T09:14:27.108Z,14.05
2024-02-29T09:16:54.098Z,11.52
2024-02-29T09:19:20.545Z,15.90
2024-02-29T09:21:47.092Z,10.93
2024-02-29T09:24:15.992Z,8.82
2024-02-29T09:26:42.809Z,10.70
2024-02-29T09:29:09.264Z,22.33
2024-02-29T09:31:35.795Z,25.50
2024-02-29T09:34:02.280Z,28.93
2024-02-29T09:36:31.054Z,31.38
2024-02-29T09:38:57.489Z,27.20
2024-02-29T09:41:33.095Z,26.50
2024-02-29T09:44:10.523Z,28.27
2024-02-29T09:46:38.430Z,5.93
2024-02-29T09:49:05.581Z,7.45
2024-02-29T09:51:32.493Z,7.13
2024-02-29T09:53:59.482Z,6.53
2024-02-29T09:56:29.200Z,6.65
2024-02-29T09:58:56.777Z,7.23
2024-02-29T10:01:23.411Z,6.57
2024-02-29T10:03:50.068Z,7.05
2024-02-29T10:06:16.517Z,9.75
2024-02-29T10:08:42.937Z,8.52
2024-02-29T10:11:09.451Z,10.77
2024-02-29T10:13:39.987Z,6.00
2024-02-29T10:16:10.129Z,6.70
2024-02-29T10:18:37.746Z,7.30
2024-02-29T10:21:11.660Z,7.07
2024-02-29T10:23:38.470Z,7.67
2024-02-29T10:26:05.504Z,8.95
2024-02-29T10:28:32.042Z,8.38
2024-02-29T10:30:59.762Z,7.50
2024-02-29T10:33:28.995Z,7.72
2024-02-29T10:35:55.547Z,9.43
2024-02-29T10:38:25.963Z,7.38
2024-02-29T10:40:54.415Z,7.53
2024-02-29T10:43:23.779Z,6.53
2024-02-29T10:45:52.053Z,9.30
2024-02-29T10:48:18.915Z,8.97
2024-02-29T10:50:54.904Z,5.90
2024-02-29T10:53:40.223Z,6.63
2024-02-29T10:56:20.843Z,6.38
2024-02-29T10:58:50.340Z,8.75
2024-02-29T11:01:17.118Z,5.80
2024-02-29T11:03:43.883Z,5.93
2024-02-29T11:06:10.568Z,7.22
2024-02-29T11:08:37.242Z,9.32
2024-02-29T11:11:03.791Z,7.13
2024-02-29T11:13:30.478Z,8.00
2024-02-29T11:15:57.296Z,7.30
2024-02-29T11:18:26.384Z,8.27
2024-02-29T11:21:04.104Z,5.57
2024-02-29T11:23:31.623Z,7.50
2024-02-29T11:26:01.023Z,6.40
2024-02-29T11:28:37.730Z,13.23
2024-02-29T11:31:15.774Z,7.78
2024-02-29T11:33:43.396Z,11.43
2024-02-29T11:36:10.998Z,7.63
2024-02-29T11:38:40.466Z,7.37
2024-02-29T11:41:20.483Z,7.15
2024-02-29T11:43:47.577Z,9.52
2024-02-29T11:46:15.379Z,17.30
2024-02-29T11:48:42.335Z,6.53
2024-02-29T11:51:08.837Z,7.40
2024-02-29T11:53:35.588Z,7.20
2024-02-29T11:56:10.687Z,7.28
2024-02-29T11:58:41.929Z,8.50
2024-02-29T12:01:08.597Z,6.85
2024-02-29T12:03:36.185Z,7.03
2024-02-29T12:06:02.716Z,6.53
2024-02-29T12:08:29.992Z,8.13
2024-02-29T12:10:57.682Z,7.60
2024-02-29T12:13:24.628Z,7.82
2024-02-29T12:15:54.381Z,7.53
2024-02-29T12:18:21.457Z,6.72
2024-02-29T12:20:48.629Z,17.55
2024-02-29T12:23:15.722Z,8.15
2024-02-29T12:25:45.090Z,7.97
2024-02-29T12:28:12.987Z,8.53
2024-02-29T12:30:40.152Z,9.65
2024-02-29T12:33:06.962Z,11.20
2024-02-29T12:35:34.239Z,8.73
2024-02-29T12:38:04.430Z,6.80
2024-02-29T12:40:31.103Z,7.80
2024-02-29T12:42:58.874Z,8.15
2024-02-29T12:45:27.884Z,7.40
2024-02-29T12:47:55.458Z,6.50
2024-02-29T12:50:22.957Z,9.38
2024-02-29T12:52:54.998Z,9.10
2024-02-29T12:55:22.903Z,10.35
2024-02-29T12:57:49.831Z,7.97
2024-02-29T13:00:20.249Z,9.75
2024-02-29T13:02:46.796Z,8.00
2024-02-29T13:05:13.260Z,9.27
2024-02-29T13:07:39.854Z,5.15
2024-02-29T13:10:06.980Z,7.25
2024-02-29T13:12:33.471Z,7.43
2024-02-29T13:14:59.918Z,7.97
2024-02-29T13:17:26.530Z,8.57
2024-02-29T13:19:53.081Z,7.28
2024-02-29T13:22:19.623Z,7.13
2024-02-29T13:24:46.395Z,7.07
2024-02-29T13:27:13.052Z,8.05
2024-02-29T13:29:39.471Z,8.97
2024-02-29T13:32:05.928Z,7.00
2024-02-29T13:34:32.793Z,8.00
2024-02-29T13:36:59.322Z,8.85
2024-02-29T13:39:25.742Z,7.20
2024-02-29T13:41:52.193Z,7.47
2024-02-29T13:44:18.632Z,8.02
2024-02-29T13:46:45.169Z,6.95
2024-02-29T13:49:21.387Z,7.75
2024-02-29T13:51:49.426Z,8.38
2024-02-29T13:54:15.899Z,7.00
2024-02-29T13:56:42.392Z,7.38
2024-02-29T13:59:08.835Z,7.18
2024-02-29T14:01:35.696Z,8.20
2024-02-29T14:04:02.199Z,7.88
2024-02-29T14:06:28.756Z,6.20
2024-02-29T14:08:55.220Z,10.25
2024-02-29T14:11:21.812Z,8.00
2024-02-29T14:13:48.255Z,7.10
2024-02-29T14:16:14.770Z,6.43
2024-02-29T14:18:41.302Z,6.83
2024-02-29T14:21:08.454Z,6.47
2024-02-29T14:23:34.897Z,6.15
2024-02-29T14:26:02.203Z,5.82
2024-02-29T14:28:28.788Z,6.20
2024-02-29T14:30:55.351Z,5.57
2024-02-29T14:33:21.907Z,8.55
2024-02-29T14:35:48.393Z,7.68
2024-02-29T14:38:14.810Z,6.78
2024-02-29T14:40:41.255Z,6.78
2024-02-29T14:43:08.177Z,5.23
2024-02-29T14:45:34.616Z,6.25
2024-02-29T14:48:01.265Z,6.50
2024-02-29T14:50:28.381Z,5.45
2024-02-29T14:52:54.853Z,7.20
2024-02-29T14:55:21.407Z,5.70
2024-02-29T14:57:47.927Z,6.90
2024-02-29T15:00:14.580Z,6.68
2024-02-29T15:02:41.573Z,6.07
2024-02-29T15:05:08.344Z,6.80
2024-02-29T15:07:35.332Z,6.97
2024-02-29T15:10:02.051Z,7.00
2024-02-29T15:12:28.519Z,7.25
2024-02-29T15:14:54.956Z,8.27
2024-02-29T15:17:21.398Z,6.10
2024-02-29T15:19:47.815Z,6.60
2024-02-29T15:22:14.260Z,17.90
2024-02-29T15:24:42.616Z,27.45
2024-02-29T15:27:10.476Z,25.00
2024-02-29T15:29:37.223Z,6.15
2024-02-29T15:32:03.904Z,6.57
2024-02-29T15:34:30.438Z,8.27
2024-02-29T15:36:56.954Z,15.15
2024-02-29T15:39:23.421Z,26.70
2024-02-29T15:41:49.895Z,20.88
2024-02-29T15:44:16.586Z,7.47
2024-02-29T15:46:45.606Z,6.13
2024-02-29T15:49:12.310Z,7.38
2024-02-29T15:51:38.742Z,6.68
2024-02-29T15:54:05.283Z,9.57
2024-02-29T15:56:31.722Z,13.37
2024-02-29T15:58:58.199Z,15.77
2024-02-29T16:01:24.897Z,16.83
2024-02-29T16:03:51.384Z,8.88
2024-02-29T16:06:19.532Z,11.02
2024-02-29T16:08:46.950Z,13.07
2024-02-29T16:11:13.458Z,13.10
2024-02-29T16:13:39.948Z,16.23
2024-02-29T16:16:06.560Z,34.92
2024-02-29T16:18:33.142Z,40.13
2024-02-29T16:20:59.581Z,56.57
2024-02-29T16:23:26.019Z,62.75
2024-02-29T16:25:52.981Z,56.60
2024-02-29T16:28:20.487Z,75.32
2024-02-29T16:30:47.009Z,82.10
2024-02-29T16:33:13.552Z,7.43
2024-02-29T16:35:39.997Z,25.30
2024-02-29T16:38:06.447Z,58.97
2024-02-29T16:40:36.864Z,69.90
2024-02-29T16:43:03.832Z,7.50
2024-02-29T16:45:30.337Z,45.60
2024-02-29T16:47:57.142Z,61.47
2024-02-29T16:50:24.157Z,50.38
2024-02-29T16:52:54.912Z,19.15
2024-02-29T16:55:21.421Z,52.75
2024-02-29T16:57:47.916Z,48.10
2024-02-29T17:00:18.939Z,23.73
2024-02-29T17:02:45.593Z,12.73
2024-02-29T17:05:13.562Z,35.63
2024-02-29T17:07:40.447Z,43.65
2024-02-29T17:10:08.222Z,37.60
2024-02-29T17:12:34.806Z,33.58
2024-02-29T17:15:01.270Z,26.75
2024-02-29T17:17:29.938Z,29.33
2024-02-29T17:19:56.435Z,30.38
2024-02-29T17:22:28.567Z,27.17
2024-02-29T17:24:55.693Z,31.80
2024-02-29T17:27:24.420Z,19.30
2024-02-29T17:29:51.954Z,29.23
2024-02-29T17:32:18.440Z,42.20
2024-02-29T17:34:47.052Z,48.13
2024-02-29T17:37:13.546Z,52.42
2024-02-29T17:39:40.008Z,5.53
2024-02-29T17:42:07.696Z,17.13
2024-02-29T17:44:34.133Z,63.22
2024-02-29T17:47:00.817Z,82.07
2024-02-29T17:49:30.534Z,84.65
2024-02-29T17:51:57.768Z,84.75
2024-02-29T17:54:24.475Z,81.95
2024-02-29T17:56:54.565Z,77.57
2024-02-29T17:59:21.807Z,5.77
2024-02-29T18:01:48.354Z,64.10
2024-02-29T18:04:14.908Z,83.65
2024-02-29T18:06:41.478Z,86.63
2024-02-29T18:09:11.314Z,102.28
2024-02-29T18:11:38.320Z,98.93
2024-02-29T18:14:04.899Z,6.18
2024-02-29T18:16:34.085Z,116.63
2024-02-29T18:19:00.879Z,115.15
2024-02-29T18:21:27.498Z,106.43
2024-02-29T18:23:53.968Z,14.93
2024-02-29T18:26:22.651Z,5.93
2024-02-29T18:28:49.466Z,69.32
2024-02-29T18:31:15.993Z,84.28
2024-02-29T18:33:42.626Z,70.55
2024-02-29T18:36:09.197Z,63.97
2024-02-29T18:38:35.667Z,8.00
2024-02-29T18:41:02.131Z,10.50
2024-02-29T18:43:28.966Z,43.90
2024-02-29T18:46:05.144Z,47.13
2024-02-29T18:48:32.944Z,47.87
2024-02-29T18:50:59.451Z,46.65
2024-02-29T18:53:25.868Z,37.30
2024-02-29T18:55:53.551Z,31.02
2024-02-29T18:58:20.062Z,8.07
2024-02-29T19:00:46.634Z,9.27
2024-02-29T19:03:13.179Z,8.93
2024-02-29T19:05:39.661Z,25.50
2024-02-29T19:08:06.363Z,26.08
2024-02-29T19:10:34.227Z,29.13
2024-02-29T19:13:00.777Z,32.10
2024-02-29T19:15:27.303Z,20.90
2024-02-29T19:17:53.798Z,23.27
2024-02-29T19:20:20.323Z,33.53
2024-02-29T19:22:46.734Z,47.45
2024-02-29T19:25:13.222Z,51.23
2024-02-29T19:27:39.800Z,47.85
2024-02-29T19:30:09.620Z,39.70
2024-02-29T19:32:36.152Z,36.88
2024-02-29T19:35:02.614Z,5.00
2024-02-29T19:37:29.140Z,9.17
2024-02-29T19:39:55.761Z,31.17
2024-02-29T19:42:22.271Z,29.33
2024-02-29T19:44:48.739Z,24.92
2024-02-29T19:47:17.402Z,24.85
2024-02-29T19:49:43.821Z,16.20
2024-02-29T19:52:10.311Z,4.57
2024-02-29T19:54:37.675Z,8.68
2024-02-29T19:57:04.228Z,20.48
2024-02-29T19:59:30.657Z,26.38
2024-02-29T20:01:57.182Z,37.67
2024-02-29T20:04:26.290Z,48.58
2024-02-29T20:06:55.683Z,34.90
2024-02-29T20:09:22.248Z,42.20
2024-02-29T20:11:48.668Z,22.90
2024-02-29T20:14:15.167Z,12.67
2024-02-29T20:16:42.336Z,32.47
2024-02-29T20:19:09.791Z,39.72
2024-02-29T20:21:36.351Z,29.20
2024-02-29T20:24:02.838Z,33.22
2024-02-29T20:26:29.269Z,31.90
2024-02-29T20:28:55.717Z,33.53
2024-02-29T20:31:22.277Z,29.73
2024-02-29T20:33:48.809Z,28.75
2024-02-29T20:36:15.293Z,17.95
2024-02-29T20:38:41.966Z,31.30
2024-02-29T20:41:09.586Z,23.27
2024-02-29T20:43:36.189Z,21.73
2024-02-29T20:46:02.771Z,22.33
2024-02-29T20:48:29.304Z,18.02
2024-02-29T20:50:55.738Z,19.33
2024-02-29T20:53:22.164Z,21.50
2024-02-29T20:55:48.691Z,25.27
2024-02-29T20:58:15.824Z,17.48
2024-02-29T21:00:42.387Z,11.57
2024-02-29T21:03:09.137Z,20.10
2024-02-29T21:05:35.715Z,11.13
2024-02-29T21:08:02.163Z,9.85
2024-02-29T21:10:28.816Z,9.45
2024-02-29T21:12:57.330Z,16.70
2024-02-29T21:15:23.902Z,7.50
2024-02-29T21:17:51.711Z,8.80
2024-02-29T21:20:19.002Z,7.82
2024-02-29T21:22:45.568Z,7.47
2024-02-29T21:25:12.258Z,7.80
2024-02-29T21:27:39.525Z,7.30
2024-02-29T21:30:08.265Z,6.22
2024-02-29T21:32:35.035Z,14.18
2024-02-29T21:35:02.071Z,4.68
2024-02-29T21:37:28.618Z,5.03
2024-02-29T21:39:57.902Z,10.07
2024-02-29T21:42:24.336Z,9.05
2024-02-29T21:44:51.884Z,11.15
2024-02-29T21:47:18.469Z,12.82
2024-02-29T21:49:45.742Z,6.72
2024-02-29T21:52:12.997Z,35.83
2024-02-29T21:54:39.988Z,14.30
2024-02-29T21:57:06.395Z,4.97
2024-02-29T21:59:32.860Z,2.40
2024-02-29T22:02:01.564Z,2.95
2024-02-29T22:04:28.287Z,2.70
2024-02-29T22:06:54.877Z,3.92
2024-02-29T22:09:21.394Z,4.70
2024-02-29T22:11:47.879Z,4.28
2024-02-29T22:14:14.296Z,68.40
2024-02-29T22:16:43.958Z,20.00
2024-02-29T22:19:13.753Z,12.02
2024-02-29T22:21:40.243Z,15.30
2024-02-29T22:24:06.899Z,7.38
2024-02-29T22:26:33.468Z,3.38
2024-02-29T22:28:59.993Z,9.63
2024-02-29T22:31:26.433Z,14.00
2024-02-29T22:33:53.043Z,8.15
2024-02-29T22:36:19.609Z,6.57
2024-02-29T22:38:48.738Z,14.23
2024-02-29T22:41:15.829Z,8.37
2024-02-29T22:43:42.509Z,5.38
2024-02-29T22:46:11.686Z,3.15
2024-02-29T22:48:38.129Z,9.85
2024-02-29T22:51:04.700Z,30.58
2024-02-29T22:53:31.464Z,21.57
2024-02-29T22:55:57.918Z,3.42
2024-02-29T22:58:24.442Z,5.32
2024-02-29T23:00:54.377Z,7.22
2024-02-29T23:03:23.881Z,2.85
2024-02-29T23:05:50.462Z,4.13
2024-02-29T23:08:17.361Z,11.07
2024-02-29T23:10:44.265Z,4.93
2024-02-29T23:13:10.970Z,3.05
2024-02-29T23:15:37.494Z,3.63
2024-02-29T23:18:04.192Z,4.37
2024-02-29T23:20:30.679Z,2.28
2024-02-29T23:22:58.195Z,2.13
2024-02-29T23:25:25.494Z,4.40
2024-02-29T23:27:52.386Z,2.75
2024-02-29T23:30:18.996Z,4.20
2024-02-29T23:32:45.530Z,2.40
2024-02-29T23:35:12.014Z,3.10
2024-02-29T23:37:38.449Z,3.60
2024-02-29T23:40:05.328Z,2.55
2024-02-29T23:42:31.775Z,2.97
2024-02-29T23:44:58.224Z,2.22
2024-02-29T23:47:24.710Z,5.50
2024-02-29T23:49:51.150Z,2.40
2024-02-29T23:52:18.038Z,2.70
2024-02-29T23:54:46.720Z,1.40
2024-02-29T23:57:13.374Z,2.40
2024-02-29T23:59:39.787Z,3.40
